sensor_id;sensor_type;location;lat;lon;timestamp;pressure;altitude;pressure_sealevel;temperature;humidity
76611;BME280;65503;48.534;9.062;2023-08-12T00:02:18;97290.00;;;21.92;64.53
76611;BME280;65503;48.534;9.062;2023-08-12T00:04:45;97286.00;;;21.89;64.71
76611;BME280;65503;48.534;9.062;2023-08-12T00:07:13;97284.41;;;21.88;64.54
76611;BME280;65503;48.534;9.062;2023-08-12T00:09:39;97283.41;;;21.84;64.27
76611;BME280;65503;48.534;9.062;2023-08-12T00:12:06;97290.94;;;21.82;64.39
76611;BME280;65503;48.534;9.062;2023-08-12T00:14:33;97272.69;;;21.84;64.58
76611;BME280;65503;48.534;9.062;2023-08-12T00:16:59;97279.66;;;21.85;64.04
76611;BME280;65503;48.534;9.062;2023-08-12T00:19:26;97273.50;;;21.84;64.42
76611;BME280;65503;48.534;9.062;2023-08-12T00:21:52;97280.22;;;21.82;64.65
76611;BME280;65503;48.534;9.062;2023-08-12T00:24:19;97271.72;;;21.80;64.77
76611;BME280;65503;48.534;9.062;2023-08-12T00:26:46;97266.91;;;21.77;64.99
76611;BME280;65503;48.534;9.062;2023-08-12T00:29:12;97266.72;;;21.73;65.02
76611;BME280;65503;48.534;9.062;2023-08-12T00:31:39;97256.88;;;21.69;64.57
76611;BME280;65503;48.534;9.062;2023-08-12T00:34:05;97263.34;;;21.68;64.82
76611;BME280;65503;48.534;9.062;2023-08-12T00:36:32;97266.66;;;21.60;65.36
76611;BME280;65503;48.534;9.062;2023-08-12T00:38:59;97261.69;;;21.53;65.39
76611;BME280;65503;48.534;9.062;2023-08-12T00:41:25;97259.88;;;21.49;65.93
76611;BME280;65503;48.534;9.062;2023-08-12T00:43:52;97263.16;;;21.46;65.85
76611;BME280;65503;48.534;9.062;2023-08-12T00:46:19;97261.63;;;21.39;66.09
76611;BME280;65503;48.534;9.062;2023-08-12T00:48:46;97263.31;;;21.35;66.37
76611;BME280;65503;48.534;9.062;2023-08-12T00:51:14;97263.81;;;21.37;66.20
76611;BME280;65503;48.534;9.062;2023-08-12T00:53:42;97256.06;;;21.36;66.14
76611;BME280;65503;48.534;9.062;2023-08-12T00:56:09;97255.28;;;21.35;66.15
76611;BME280;65503;48.534;9.062;2023-08-12T00:58:36;97250.50;;;21.32;65.88
76611;BME280;65503;48.534;9.062;2023-08-12T01:01:03;97256.44;;;21.29;65.58
76611;BME280;65503;48.534;9.062;2023-08-12T01:03:30;97252.81;;;21.20;66.25
76611;BME280;65503;48.534;9.062;2023-08-12T01:05:57;97250.66;;;21.22;66.02
76611;BME280;65503;48.534;9.062;2023-08-12T01:08:27;97245.31;;;21.22;66.15
76611;BME280;65503;48.534;9.062;2023-08-12T01:11:04;97239.75;;;21.19;66.52
76611;BME280;65503;48.534;9.062;2023-08-12T01:16:33;97240.06;;;21.12;66.83
76611;BME280;65503;48.534;9.062;2023-08-12T01:19:05;97235.28;;;21.09;66.59
76611;BME280;65503;48.534;9.062;2023-08-12T01:21:33;97237.97;;;21.09;66.82
76611;BME280;65503;48.534;9.062;2023-08-12T01:23:59;97233.47;;;21.04;66.87
76611;BME280;65503;48.534;9.062;2023-08-12T01:26:26;97224.38;;;21.06;66.63
76611;BME280;65503;48.534;9.062;2023-08-12T01:28:52;97227.34;;;21.04;66.99
76611;BME280;65503;48.534;9.062;2023-08-12T01:31:45;97218.22;;;21.05;66.56
76611;BME280;65503;48.534;9.062;2023-08-12T01:34:20;97220.97;;;21.00;66.78
76611;BME280;65503;48.534;9.062;2023-08-12T01:36:56;97218.38;;;20.95;67.38
76611;BME280;65503;48.534;9.062;2023-08-12T01:39:26;97222.69;;;20.91;67.34
76611;BME280;65503;48.534;9.062;2023-08-12T01:41:54;97223.44;;;20.78;67.82
76611;BME280;65503;48.534;9.062;2023-08-12T01:44:21;97219.22;;;20.72;67.93
76611;BME280;65503;48.534;9.062;2023-08-12T01:46:48;97219.22;;;20.72;68.31
76611;BME280;65503;48.534;9.062;2023-08-12T01:49:15;97218.66;;;20.75;67.93
76611;BME280;65503;48.534;9.062;2023-08-12T01:51:42;97222.28;;;20.84;68.17
76611;BME280;65503;48.534;9.062;2023-08-12T01:54:08;97222.22;;;20.89;67.70
76611;BME280;65503;48.534;9.062;2023-08-12T01:56:34;97213.81;;;20.95;67.58
76611;BME280;65503;48.534;9.062;2023-08-12T01:59:01;97215.03;;;21.03;67.54
76611;BME280;65503;48.534;9.062;2023-08-12T02:01:27;97214.47;;;21.06;67.31
76611;BME280;65503;48.534;9.062;2023-08-12T02:03:54;97216.47;;;21.14;66.96
76611;BME280;65503;48.534;9.062;2023-08-12T02:06:21;97219.22;;;21.09;66.83
76611;BME280;65503;48.534;9.062;2023-08-12T02:08:48;97214.94;;;21.08;67.01
76611;BME280;65503;48.534;9.062;2023-08-12T02:11:14;97214.75;;;21.04;67.24
76611;BME280;65503;48.534;9.062;2023-08-12T02:13:41;97215.03;;;21.03;67.03
76611;BME280;65503;48.534;9.062;2023-08-12T02:16:07;97213.44;;;21.02;67.39
76611;BME280;65503;48.534;9.062;2023-08-12T02:18:34;97213.44;;;21.02;67.34
76611;BME280;65503;48.534;9.062;2023-08-12T02:21:01;97205.72;;;21.00;67.17
76611;BME280;65503;48.534;9.062;2023-08-12T02:23:28;97207.88;;;20.98;67.41
76611;BME280;65503;48.534;9.062;2023-08-12T02:25:55;97210.28;;;21.00;66.84
76611;BME280;65503;48.534;9.062;2023-08-12T02:28:22;97211.88;;;21.01;67.01
76611;BME280;65503;48.534;9.062;2023-08-12T02:30:48;97210.47;;;21.03;67.37
76611;BME280;65503;48.534;9.062;2023-08-12T02:33:15;97201.38;;;21.04;66.71
76611;BME280;65503;48.534;9.062;2023-08-12T02:35:42;97203.16;;;21.09;66.94
76611;BME280;65503;48.534;9.062;2023-08-12T02:38:09;97200.06;;;21.02;67.11
76611;BME280;65503;48.534;9.062;2023-08-12T02:40:35;97201.09;;;21.06;67.00
76611;BME280;65503;48.534;9.062;2023-08-12T02:43:02;97198.41;;;21.06;67.42
76611;BME280;65503;48.534;9.062;2023-08-12T02:45:28;97198.41;;;21.06;66.82
76611;BME280;65503;48.534;9.062;2023-08-12T02:47:55;97194.66;;;21.07;66.85
76611;BME280;65503;48.534;9.062;2023-08-12T02:50:21;97197.97;;;20.99;67.43
76611;BME280;65503;48.534;9.062;2023-08-12T02:52:48;97197.78;;;20.95;67.44
76611;BME280;65503;48.534;9.062;2023-08-12T02:55:14;97202.88;;;20.92;67.61
76611;BME280;65503;48.534;9.062;2023-08-12T02:57:41;97194.78;;;20.97;67.36
76611;BME280;65503;48.534;9.062;2023-08-12T03:00:08;97195.72;;;21.06;66.99
76611;BME280;65503;48.534;9.062;2023-08-12T03:02:35;97187.09;;;21.09;67.24
76611;BME280;65503;48.534;9.062;2023-08-12T03:05:01;97185.75;;;21.12;66.69
76611;BME280;65503;48.534;9.062;2023-08-12T03:07:28;97180.63;;;21.15;67.04
76611;BME280;65503;48.534;9.062;2023-08-12T03:09:55;97179.53;;;21.16;66.86
76611;BME280;65503;48.534;9.062;2023-08-12T03:12:21;97174.97;;;21.17;67.21
76611;BME280;65503;48.534;9.062;2023-08-12T03:14:48;97180.06;;;21.18;67.29
76611;BME280;65503;48.534;9.062;2023-08-12T03:17:15;97188.88;;;21.19;67.15
76611;BME280;65503;48.534;9.062;2023-08-12T03:19:41;97188.56;;;21.20;66.84
76611;BME280;65503;48.534;9.062;2023-08-12T03:22:08;97190.97;;;21.22;67.06
76611;BME280;65503;48.534;9.062;2023-08-12T03:24:34;97179.97;;;21.23;67.29
76611;BME280;65503;48.534;9.062;2023-08-12T03:27:01;97184.72;;;21.26;66.74
76611;BME280;65503;48.534;9.062;2023-08-12T03:29:27;97175.09;;;21.25;66.88
76611;BME280;65503;48.534;9.062;2023-08-12T03:31:54;97171.94;;;21.23;66.68
76611;BME280;65503;48.534;9.062;2023-08-12T03:34:21;97176.69;;;21.26;66.54
76611;BME280;65503;48.534;9.062;2023-08-12T03:36:47;97173.53;;;21.24;66.77
76611;BME280;65503;48.534;9.062;2023-08-12T03:39:15;97167.75;;;21.17;66.65
76611;BME280;65503;48.534;9.062;2023-08-12T03:41:42;97170.56;;;21.07;66.84
76611;BME280;65503;48.534;9.062;2023-08-12T03:44:09;97169.84;;;21.01;67.30
76611;BME280;65503;48.534;9.062;2023-08-12T03:46:35;97169.06;;;21.01;66.97
76611;BME280;65503;48.534;9.062;2023-08-12T03:49:02;97174.41;;;21.01;67.12
76611;BME280;65503;48.534;9.062;2023-08-12T03:51:29;97173.81;;;21.04;67.20
76611;BME280;65503;48.534;9.062;2023-08-12T03:53:55;97167.88;;;21.07;67.73
76611;BME280;65503;48.534;9.062;2023-08-12T03:56:23;97173.44;;;21.11;67.53
76611;BME280;65503;48.534;9.062;2023-08-12T03:58:50;97177.00;;;21.06;67.03
76611;BME280;65503;48.534;9.062;2023-08-12T04:01:16;97170.41;;;20.98;67.73
76611;BME280;65503;48.534;9.062;2023-08-12T04:03:43;97165.25;;;21.02;67.36
76611;BME280;65503;48.534;9.062;2023-08-12T04:06:13;97167.81;;;21.12;67.22
76611;BME280;65503;48.534;9.062;2023-08-12T04:08:39;97168.19;;;21.24;66.89
76611;BME280;65503;48.534;9.062;2023-08-12T04:11:06;97171.16;;;21.36;66.73
76611;BME280;65503;48.534;9.062;2023-08-12T04:13:33;97174.56;;;21.42;66.55
76611;BME280;65503;48.534;9.062;2023-08-12T04:15:59;97176.38;;;21.47;66.15
76611;BME280;65503;48.534;9.062;2023-08-12T04:18:26;97181.13;;;21.50;66.26
76611;BME280;65503;48.534;9.062;2023-08-12T04:20:53;97189.69;;;21.52;66.26
76611;BME280;65503;48.534;9.062;2023-08-12T04:23:19;97177.56;;;21.54;66.09
76611;BME280;65503;48.534;9.062;2023-08-12T04:25:47;97169.25;;;21.56;65.97
76611;BME280;65503;48.534;9.062;2023-08-12T04:28:14;97174.31;;;21.57;65.85
76611;BME280;65503;48.534;9.062;2023-08-12T04:30:42;97170.84;;;21.57;65.67
76611;BME280;65503;48.534;9.062;2023-08-12T04:33:09;97180.38;;;21.63;65.54
76611;BME280;65503;48.534;9.062;2023-08-12T04:35:36;97171.44;;;21.67;65.24
76611;BME280;65503;48.534;9.062;2023-08-12T04:38:03;97177.00;;;21.71;64.88
76611;BME280;65503;48.534;9.062;2023-08-12T04:40:30;97183.94;;;21.72;64.77
76611;BME280;65503;48.534;9.062;2023-08-12T04:42:58;97176.84;;;21.81;64.71
76611;BME280;65503;48.534;9.062;2023-08-12T04:45:25;97175.34;;;21.89;64.79
76611;BME280;65503;48.534;9.062;2023-08-12T04:47:51;97176.03;;;21.94;64.36
76611;BME280;65503;48.534;9.062;2023-08-12T04:50:18;97172.06;;;21.92;64.82
76611;BME280;65503;48.534;9.062;2023-08-12T04:52:45;97158.56;;;21.83;65.52
76611;BME280;65503;48.534;9.062;2023-08-12T04:55:12;97155.25;;;21.59;66.65
76611;BME280;65503;48.534;9.062;2023-08-12T04:57:39;97166.16;;;21.49;66.91
76611;BME280;65503;48.534;9.062;2023-08-12T05:00:06;97180.31;;;21.35;68.09
76611;BME280;65503;48.534;9.062;2023-08-12T05:02:35;97175.28;;;21.15;67.71
76611;BME280;65503;48.534;9.062;2023-08-12T05:05:02;97177.16;;;21.15;68.19
76611;BME280;65503;48.534;9.062;2023-08-12T05:07:29;97176.28;;;21.19;68.47
76611;BME280;65503;48.534;9.062;2023-08-12T05:09:57;97180.31;;;21.35;68.54
76611;BME280;65503;48.534;9.062;2023-08-12T05:12:24;97177.94;;;21.48;68.66
76611;BME280;65503;48.534;9.062;2023-08-12T05:14:50;97178.59;;;21.58;68.23
76611;BME280;65503;48.534;9.062;2023-08-12T05:17:17;97166.97;;;21.63;67.85
76611;BME280;65503;48.534;9.062;2023-08-12T05:19:43;97157.53;;;21.52;68.04
76611;BME280;65503;48.534;9.062;2023-08-12T05:22:10;97168.91;;;21.43;67.36
76611;BME280;65503;48.534;9.062;2023-08-12T05:24:37;97190.84;;;21.46;67.93
76611;BME280;65503;48.534;9.062;2023-08-12T05:27:04;97181.56;;;21.57;68.00
76611;BME280;65503;48.534;9.062;2023-08-12T05:29:30;97189.13;;;21.68;68.93
76611;BME280;65503;48.534;9.062;2023-08-12T05:31:57;97183.38;;;21.75;68.35
76611;BME280;65503;48.534;9.062;2023-08-12T05:34:24;97183.03;;;21.95;68.00
76611;BME280;65503;48.534;9.062;2023-08-12T05:36:50;97173.69;;;22.06;67.56
76611;BME280;65503;48.534;9.062;2023-08-12T05:39:17;97171.63;;;22.03;67.61
76611;BME280;65503;48.534;9.062;2023-08-12T05:41:44;97175.88;;;22.04;67.12
76611;BME280;65503;48.534;9.062;2023-08-12T05:44:11;97181.63;;;22.11;67.80
76611;BME280;65503;48.534;9.062;2023-08-12T05:46:38;97188.50;;;22.31;67.10
76611;BME280;65503;48.534;9.062;2023-08-12T05:49:04;97180.00;;;22.51;66.75
76611;BME280;65503;48.534;9.062;2023-08-12T05:51:31;97185.38;;;22.65;66.93
76611;BME280;65503;48.534;9.062;2023-08-12T05:53:58;97186.75;;;22.76;66.18
76611;BME280;65503;48.534;9.062;2023-08-12T05:56:25;97191.50;;;22.79;66.28
76611;BME280;65503;48.534;9.062;2023-08-12T05:58:51;97182.75;;;22.87;66.12
76611;BME280;65503;48.534;9.062;2023-08-12T06:01:19;97190.19;;;22.90;65.83
76611;BME280;65503;48.534;9.062;2023-08-12T06:03:45;97191.91;;;23.08;65.40
76611;BME280;65503;48.534;9.062;2023-08-12T06:06:12;97177.91;;;23.12;64.85
76611;BME280;65503;48.534;9.062;2023-08-12T06:08:39;97180.91;;;23.41;64.50
76611;BME280;65503;48.534;9.062;2023-08-12T06:11:06;97182.13;;;23.79;63.64
76611;BME280;65503;48.534;9.062;2023-08-12T06:13:32;97178.38;;;24.20;61.59
76611;BME280;65503;48.534;9.062;2023-08-12T06:15:59;97178.91;;;24.39;60.47
76611;BME280;65503;48.534;9.062;2023-08-12T06:18:26;97185.09;;;24.57;60.25
76611;BME280;65503;48.534;9.062;2023-08-12T06:20:52;97196.75;;;24.92;59.53
76611;BME280;65503;48.534;9.062;2023-08-12T06:23:19;97189.59;;;25.39;58.25
76611;BME280;65503;48.534;9.062;2023-08-12T06:25:45;97180.38;;;26.12;54.43
76611;BME280;65503;48.534;9.062;2023-08-12T06:28:12;97185.03;;;26.62;53.19
76611;BME280;65503;48.534;9.062;2023-08-12T06:30:38;97180.63;;;26.78;53.28
76611;BME280;65503;48.534;9.062;2023-08-12T06:33:05;97183.84;;;27.22;52.96
76611;BME280;65503;48.534;9.062;2023-08-12T06:35:32;97175.78;;;27.13;51.63
76611;BME280;65503;48.534;9.062;2023-08-12T06:37:58;97185.72;;;26.88;52.80
76611;BME280;65503;48.534;9.062;2023-08-12T06:40:25;97177.25;;;26.40;52.81
76611;BME280;65503;48.534;9.062;2023-08-12T06:42:53;97186.13;;;26.02;54.17
76611;BME280;65503;48.534;9.062;2023-08-12T06:45:19;97180.19;;;25.71;55.48
76611;BME280;65503;48.534;9.062;2023-08-12T06:47:46;97182.13;;;25.44;56.46
76611;BME280;65503;48.534;9.062;2023-08-12T06:50:12;97184.22;;;25.30;56.42
76611;BME280;65503;48.534;9.062;2023-08-12T06:52:39;97183.91;;;25.15;57.24
76611;BME280;65503;48.534;9.062;2023-08-12T06:55:06;97181.72;;;24.99;56.06
76611;BME280;65503;48.534;9.062;2023-08-12T06:57:32;97186.44;;;25.02;56.50
76611;BME280;65503;48.534;9.062;2023-08-12T06:59:59;97177.72;;;25.31;55.56
76611;BME280;65503;48.534;9.062;2023-08-12T07:02:25;97173.88;;;25.67;55.40
76611;BME280;65503;48.534;9.062;2023-08-12T07:04:52;97170.91;;;26.65;53.55
76611;BME280;65503;48.534;9.062;2023-08-12T07:07:18;97174.44;;;27.40;51.36
76611;BME280;65503;48.534;9.062;2023-08-12T07:09:45;97180.25;;;28.44;48.84
76611;BME280;65503;48.534;9.062;2023-08-12T07:12:11;97181.22;;;29.28;46.42
76611;BME280;65503;48.534;9.062;2023-08-12T07:14:38;97188.69;;;29.75;43.31
76611;BME280;65503;48.534;9.062;2023-08-12T07:17:05;97186.13;;;29.50;45.00
76611;BME280;65503;48.534;9.062;2023-08-12T07:19:32;97182.47;;;29.58;45.36
76611;BME280;65503;48.534;9.062;2023-08-12T07:21:58;97185.97;;;30.18;43.78
76611;BME280;65503;48.534;9.062;2023-08-12T07:24:25;97181.19;;;30.47;41.90
76611;BME280;65503;48.534;9.062;2023-08-12T07:26:51;97176.56;;;30.82;40.85
76611;BME280;65503;48.534;9.062;2023-08-12T07:29:18;97178.34;;;30.74;39.73
76611;BME280;65503;48.534;9.062;2023-08-12T07:31:44;97185.78;;;30.11;41.47
76611;BME280;65503;48.534;9.062;2023-08-12T07:34:11;97183.91;;;29.84;42.25
76611;BME280;65503;48.534;9.062;2023-08-12T07:36:40;97178.41;;;30.27;41.55
76611;BME280;65503;48.534;9.062;2023-08-12T07:39:07;97170.44;;;30.85;40.75
76611;BME280;65503;48.534;9.062;2023-08-12T07:41:33;97172.47;;;31.07;39.59
76611;BME280;65503;48.534;9.062;2023-08-12T07:44:00;97180.63;;;31.07;40.14
76611;BME280;65503;48.534;9.062;2023-08-12T07:46:28;97176.91;;;31.35;41.24
76611;BME280;65503;48.534;9.062;2023-08-12T07:48:56;97170.56;;;30.73;40.21
76611;BME280;65503;48.534;9.062;2023-08-12T07:51:22;97181.28;;;31.20;39.84
76611;BME280;65503;48.534;9.062;2023-08-12T07:53:49;97175.44;;;31.02;40.43
76611;BME280;65503;48.534;9.062;2023-08-12T07:56:16;97178.34;;;31.29;39.58
76611;BME280;65503;48.534;9.062;2023-08-12T07:58:42;97174.47;;;31.30;39.86
76611;BME280;65503;48.534;9.062;2023-08-12T08:01:09;97176.44;;;31.52;38.54
76611;BME280;65503;48.534;9.062;2023-08-12T08:03:35;97167.31;;;31.60;39.40
76611;BME280;65503;48.534;9.062;2023-08-12T08:06:02;97174.25;;;31.38;39.38
76611;BME280;65503;48.534;9.062;2023-08-12T08:08:29;97175.25;;;31.30;40.07
76611;BME280;65503;48.534;9.062;2023-08-12T08:10:55;97177.91;;;31.88;40.00
76611;BME280;65503;48.534;9.062;2023-08-12T08:13:22;97181.56;;;32.67;38.13
76611;BME280;65503;48.534;9.062;2023-08-12T08:15:48;97173.91;;;33.40;37.13
76611;BME280;65503;48.534;9.062;2023-08-12T08:18:15;97184.44;;;33.08;35.98
76611;BME280;65503;48.534;9.062;2023-08-12T08:20:42;97176.72;;;32.57;36.79
76611;BME280;65503;48.534;9.062;2023-08-12T08:23:11;97178.06;;;32.18;36.88
76611;BME280;65503;48.534;9.062;2023-08-12T08:25:38;97174.41;;;31.87;37.58
76611;BME280;65503;48.534;9.062;2023-08-12T08:28:04;97174.03;;;31.89;38.86
76611;BME280;65503;48.534;9.062;2023-08-12T08:30:31;97170.03;;;31.60;40.06
76611;BME280;65503;48.534;9.062;2023-08-12T08:32:57;97176.44;;;31.52;40.46
76611;BME280;65503;48.534;9.062;2023-08-12T08:35:24;97181.84;;;31.48;40.47
76611;BME280;65503;48.534;9.062;2023-08-12T08:37:51;97185.69;;;31.47;40.82
76611;BME280;65503;48.534;9.062;2023-08-12T08:40:17;97190.03;;;31.10;40.42
76611;BME280;65503;48.534;9.062;2023-08-12T08:42:51;97191.44;;;30.88;41.28
76611;BME280;65503;48.534;9.062;2023-08-12T08:45:21;97180.56;;;30.88;40.96
76611;BME280;65503;48.534;9.062;2023-08-12T08:47:48;97186.84;;;31.27;41.04
76611;BME280;65503;48.534;9.062;2023-08-12T08:50:14;97190.19;;;31.78;39.94
76611;BME280;65503;48.534;9.062;2023-08-12T08:52:41;97194.09;;;32.23;38.85
76611;BME280;65503;48.534;9.062;2023-08-12T08:55:09;97185.09;;;32.45;36.73
76611;BME280;65503;48.534;9.062;2023-08-12T08:57:37;97185.13;;;31.99;37.03
76611;BME280;65503;48.534;9.062;2023-08-12T09:00:13;97188.00;;;31.87;38.21
76611;BME280;65503;48.534;9.062;2023-08-12T09:02:46;97190.44;;;31.92;39.28
76611;BME280;65503;48.534;9.062;2023-08-12T09:05:15;97191.28;;;31.96;39.18
76611;BME280;65503;48.534;9.062;2023-08-12T09:07:42;97191.28;;;31.96;38.88
76611;BME280;65503;48.534;9.062;2023-08-12T09:10:10;97192.22;;;31.62;39.73
76611;BME280;65503;48.534;9.062;2023-08-12T09:12:41;97196.25;;;31.30;39.58
76611;BME280;65503;48.534;9.062;2023-08-12T09:15:08;97185.63;;;31.05;41.21
76611;BME280;65503;48.534;9.062;2023-08-12T09:17:35;97186.78;;;31.24;41.92
76611;BME280;65503;48.534;9.062;2023-08-12T09:20:02;97185.50;;;31.37;41.27
76611;BME280;65503;48.534;9.062;2023-08-12T09:22:31;97189.97;;;31.68;40.72
76611;BME280;65503;48.534;9.062;2023-08-12T09:24:58;97188.50;;;31.70;40.07
76611;BME280;65503;48.534;9.062;2023-08-12T09:27:25;97188.94;;;31.95;38.89
76611;BME280;65503;48.534;9.062;2023-08-12T09:29:55;97185.50;;;32.21;39.30
76611;BME280;65503;48.534;9.062;2023-08-12T09:32:23;97186.69;;;32.46;38.94
76611;BME280;65503;48.534;9.062;2023-08-12T09:34:51;97178.50;;;32.72;38.16
76611;BME280;65503;48.534;9.062;2023-08-12T09:37:20;97173.66;;;32.89;38.41
76611;BME280;65503;48.534;9.062;2023-08-12T09:39:47;97168.06;;;33.08;38.05
76611;BME280;65503;48.534;9.062;2023-08-12T09:42:15;97170.25;;;32.95;38.02
76611;BME280;65503;48.534;9.062;2023-08-12T09:44:42;97163.53;;;32.89;37.63
76611;BME280;65503;48.534;9.062;2023-08-12T09:47:09;97154.56;;;32.89;38.27
76611;BME280;65503;48.534;9.062;2023-08-12T09:49:38;97152.81;;;32.73;37.88
76611;BME280;65503;48.534;9.062;2023-08-12T09:52:06;97154.16;;;32.60;38.21
76611;BME280;65503;48.534;9.062;2023-08-12T09:54:34;97149.53;;;32.64;38.88
76611;BME280;65503;48.534;9.062;2023-08-12T09:57:04;97144.56;;;32.44;42.07
76611;BME280;65503;48.534;9.062;2023-08-12T09:59:34;97147.94;;;32.11;42.79
76611;BME280;65503;48.534;9.062;2023-08-12T10:02:04;97142.44;;;31.62;41.63
76611;BME280;65503;48.534;9.062;2023-08-12T10:04:39;97145.38;;;31.53;43.18
76611;BME280;65503;48.534;9.062;2023-08-12T10:07:09;97146.38;;;31.64;43.13
76611;BME280;65503;48.534;9.062;2023-08-12T10:09:36;97146.44;;;31.68;43.06
76611;BME280;65503;48.534;9.062;2023-08-12T10:12:05;97129.56;;;31.81;42.50
76611;BME280;65503;48.534;9.062;2023-08-12T10:14:33;97127.97;;;31.80;42.08
76611;BME280;65503;48.534;9.062;2023-08-12T10:17:00;97124.13;;;31.81;41.98
76611;BME280;65503;48.534;9.062;2023-08-12T10:19:31;97131.81;;;31.56;41.59
76611;BME280;65503;48.534;9.062;2023-08-12T10:21:59;97133.59;;;31.68;41.30
76611;BME280;65503;48.534;9.062;2023-08-12T10:24:26;97128.22;;;31.94;41.32
76611;BME280;65503;48.534;9.062;2023-08-12T10:26:53;97125.06;;;31.92;40.22
76611;BME280;65503;48.534;9.062;2023-08-12T10:29:22;97141.91;;;31.75;39.79
76611;BME280;65503;48.534;9.062;2023-08-12T10:31:49;97154.09;;;31.62;41.44
76611;BME280;65503;48.534;9.062;2023-08-12T10:34:24;97152.75;;;31.33;41.83
76611;BME280;65503;48.534;9.062;2023-08-12T10:36:55;97151.66;;;31.15;41.75
76611;BME280;65503;48.534;9.062;2023-08-12T10:39:31;97164.16;;;31.58;41.89
76611;BME280;65503;48.534;9.062;2023-08-12T10:41:59;97153.16;;;31.96;41.15
76611;BME280;65503;48.534;9.062;2023-08-12T10:44:40;97149.41;;;32.05;40.29
76611;BME280;65503;48.534;9.062;2023-08-12T10:47:10;97145.13;;;32.83;39.45
76611;BME280;65503;48.534;9.062;2023-08-12T10:49:47;97155.06;;;33.28;37.03
76611;BME280;65503;48.534;9.062;2023-08-12T10:52:31;97140.78;;;33.08;35.63
76611;BME280;65503;48.534;9.062;2023-08-12T10:55:26;97138.38;;;33.03;37.26
76611;BME280;65503;48.534;9.062;2023-08-12T10:57:55;97156.03;;;33.42;35.53
76611;BME280;65503;48.534;9.062;2023-08-12T11:00:25;97152.19;;;33.50;34.62
76611;BME280;65503;48.534;9.062;2023-08-12T11:02:54;97138.41;;;33.73;34.32
76611;BME280;65503;48.534;9.062;2023-08-12T11:05:21;97142.66;;;34.18;34.10
76611;BME280;65503;48.534;9.062;2023-08-12T11:07:58;97154.31;;;34.08;33.51
76611;BME280;65503;48.534;9.062;2023-08-12T11:10:31;97144.47;;;33.96;33.01
76611;BME280;65503;48.534;9.062;2023-08-12T11:13:00;97146.88;;;33.65;33.14
76611;BME280;65503;48.534;9.062;2023-08-12T11:15:36;97139.47;;;33.28;35.23
76611;BME280;65503;48.534;9.062;2023-08-12T11:18:04;97133.63;;;33.26;34.86
76611;BME280;65503;48.534;9.062;2023-08-12T11:20:32;97126.25;;;33.30;33.51
76611;BME280;65503;48.534;9.062;2023-08-12T11:23:00;97126.28;;;33.71;32.56
76611;BME280;65503;48.534;9.062;2023-08-12T11:25:31;97121.88;;;33.62;33.26
76611;BME280;65503;48.534;9.062;2023-08-12T11:27:58;97118.41;;;34.10;31.79
76611;BME280;65503;48.534;9.062;2023-08-12T11:30:25;97120.63;;;34.45;32.07
76611;BME280;65503;48.534;9.062;2023-08-12T11:32:55;97106.03;;;34.85;31.41
76611;BME280;65503;48.534;9.062;2023-08-12T11:35:23;97105.59;;;34.79;31.99
76611;BME280;65503;48.534;9.062;2023-08-12T11:37:52;97114.97;;;34.78;30.60
76611;BME280;65503;48.534;9.062;2023-08-12T11:40:19;97119.31;;;34.24;31.82
76611;BME280;65503;48.534;9.062;2023-08-12T11:42:47;97113.28;;;34.59;31.54
76611;BME280;65503;48.534;9.062;2023-08-12T11:45:16;97115.53;;;33.51;32.18
76611;BME280;65503;48.534;9.062;2023-08-12T11:47:44;97104.88;;;33.39;32.12
76611;BME280;65503;48.534;9.062;2023-08-12T11:50:12;97108.72;;;32.98;32.27
76611;BME280;65503;48.534;9.062;2023-08-12T11:52:39;97102.69;;;33.15;31.19
76611;BME280;65503;48.534;9.062;2023-08-12T11:55:06;97096.41;;;32.51;32.83
76611;BME280;65503;48.534;9.062;2023-08-12T11:57:33;97086.97;;;31.92;33.78
76611;BME280;65503;48.534;9.062;2023-08-12T12:00:05;97089.53;;;31.59;35.52
76611;BME280;65503;48.534;9.062;2023-08-12T12:02:46;97098.84;;;31.58;34.50
76611;BME280;65503;48.534;9.062;2023-08-12T12:05:13;97106.31;;;31.87;34.47
76611;BME280;65503;48.534;9.062;2023-08-12T12:07:40;97107.22;;;31.49;35.38
76611;BME280;65503;48.534;9.062;2023-08-12T12:10:07;97113.03;;;31.29;36.27
76611;BME280;65503;48.534;9.062;2023-08-12T12:12:35;97122.13;;;30.78;37.28
76611;BME280;65503;48.534;9.062;2023-08-12T12:15:03;97125.50;;;30.91;38.49
76611;BME280;65503;48.534;9.062;2023-08-12T12:17:30;97141.69;;;31.23;37.27
76611;BME280;65503;48.534;9.062;2023-08-12T12:19:58;97141.50;;;30.77;38.02
76611;BME280;65503;48.534;9.062;2023-08-12T12:22:30;97139.31;;;30.48;38.62
76611;BME280;65503;48.534;9.062;2023-08-12T12:25:04;97143.34;;;29.60;40.51
76611;BME280;65503;48.534;9.062;2023-08-12T12:27:31;97157.69;;;29.44;40.93
76611;BME280;65503;48.534;9.062;2023-08-12T12:29:57;97157.50;;;29.37;40.98
76611;BME280;65503;48.534;9.062;2023-08-12T12:32:24;97164.03;;;29.36;41.42
76611;BME280;65503;48.534;9.062;2023-08-12T12:34:50;97175.47;;;28.90;42.59
76611;BME280;65503;48.534;9.062;2023-08-12T12:37:18;97184.63;;;28.85;42.61
76611;BME280;65503;48.534;9.062;2023-08-12T12:39:45;97202.25;;;28.79;43.31
76611;BME280;65503;48.534;9.062;2023-08-12T12:42:12;97216.34;;;27.34;52.12
76611;BME280;65503;48.534;9.062;2023-08-12T12:44:41;97260.94;;;26.69;56.33
76611;BME280;65503;48.534;9.062;2023-08-12T12:47:13;97250.94;;;25.85;59.96
76611;BME280;65503;48.534;9.062;2023-08-12T12:49:40;97254.44;;;25.34;63.48
76611;BME280;65503;48.534;9.062;2023-08-12T12:52:09;97254.16;;;24.61;65.15
76611;BME280;65503;48.534;9.062;2023-08-12T12:54:37;97251.00;;;24.20;67.13
76611;BME280;65503;48.534;9.062;2023-08-12T12:57:03;97265.34;;;23.84;67.95
76611;BME280;65503;48.534;9.062;2023-08-12T12:59:32;97246.53;;;23.62;68.45
76611;BME280;65503;48.534;9.062;2023-08-12T13:02:01;97243.00;;;23.53;68.66
76611;BME280;65503;48.534;9.062;2023-08-12T13:04:27;97248.28;;;23.44;69.33
76611;BME280;65503;48.534;9.062;2023-08-12T13:06:55;97248.66;;;23.29;70.35